sensor_id;sensor_type;location;lat;lon;timestamp;P1;durP1;ratioP1;P2;durP2;ratioP2
72497;SDS011;60522;52.536;5.702;2022-12-26T00:01:05;0.70;;;0.50;;
72497;SDS011;60522;52.536;5.702;2022-12-26T00:03:35;0.50;;;0.40;;
72497;SDS011;60522;52.536;5.702;2022-12-26T00:06:01;0.70;;;0.50;;
72497;SDS011;60522;52.536;5.702;2022-12-26T00:08:27;0.50;;;0.40;;
72497;SDS011;60522;52.536;5.702;2022-12-26T00:10:52;0.60;;;0.40;;
72497;SDS011;60522;52.536;5.702;2022-12-26T00:13:18;0.80;;;0.40;;
72497;SDS011;60522;52.536;5.702;2022-12-26T00:15:43;0.83;;;0.50;;
72497;SDS011;60522;52.536;5.702;2022-12-26T00:18:09;0.60;;;0.50;;
72497;SDS011;60522;52.536;5.702;2022-12-26T00:20:34;0.47;;;0.47;;
72497;SDS011;60522;52.536;5.702;2022-12-26T00:22:59;0.50;;;0.50;;
72497;SDS011;60522;52.536;5.702;2022-12-26T00:25:25;0.60;;;0.50;;
72497;SDS011;60522;52.536;5.702;2022-12-26T00:27:50;0.70;;;0.60;;
72497;SDS011;60522;52.536;5.702;2022-12-26T00:30:16;0.60;;;0.50;;
72497;SDS011;60522;52.536;5.702;2022-12-26T00:32:41;0.63;;;0.52;;
72497;SDS011;60522;52.536;5.702;2022-12-26T00:35:07;0.60;;;0.40;;
72497;SDS011;60522;52.536;5.702;2022-12-26T00:37:32;0.70;;;0.40;;
72497;SDS011;60522;52.536;5.702;2022-12-26T00:39:58;0.40;;;0.40;;
72497;SDS011;60522;52.536;5.702;2022-12-26T00:42:23;0.60;;;0.50;;
72497;SDS011;60522;52.536;5.702;2022-12-26T00:44:48;0.63;;;0.50;;
72497;SDS011;60522;52.536;5.702;2022-12-26T00:47:14;0.80;;;0.43;;
72497;SDS011;60522;52.536;5.702;2022-12-26T00:49:39;0.60;;;0.50;;
72497;SDS011;60522;52.536;5.702;2022-12-26T00:52:04;0.97;;;0.60;;
72497;SDS011;60522;52.536;5.702;2022-12-26T00:54:30;0.70;;;0.50;;
72497;SDS011;60522;52.536;5.702;2022-12-26T00:56:55;1.33;;;0.50;;
72497;SDS011;60522;52.536;5.702;2022-12-26T00:59:21;0.82;;;0.65;;
72497;SDS011;60522;52.536;5.702;2022-12-26T01:01:46;0.52;;;0.50;;
72497;SDS011;60522;52.536;5.702;2022-12-26T01:04:11;0.50;;;0.40;;
72497;SDS011;60522;52.536;5.702;2022-12-26T01:06:37;0.63;;;0.50;;
72497;SDS011;60522;52.536;5.702;2022-12-26T01:09:02;0.60;;;0.50;;
72497;SDS011;60522;52.536;5.702;2022-12-26T01:11:27;0.80;;;0.50;;
72497;SDS011;60522;52.536;5.702;2022-12-26T01:14:06;0.50;;;0.40;;
72497;SDS011;60522;52.536;5.702;2022-12-26T01:16:34;0.50;;;0.47;;
72497;SDS011;60522;52.536;5.702;2022-12-26T01:18:59;0.57;;;0.50;;
72497;SDS011;60522;52.536;5.702;2022-12-26T01:21:25;0.40;;;0.40;;
72497;SDS011;60522;52.536;5.702;2022-12-26T01:23:50;0.60;;;0.40;;
72497;SDS011;60522;52.536;5.702;2022-12-26T01:26:16;0.60;;;0.40;;
72497;SDS011;60522;52.536;5.702;2022-12-26T01:28:41;0.70;;;0.50;;
72497;SDS011;60522;52.536;5.702;2022-12-26T01:31:06;0.73;;;0.50;;
72497;SDS011;60522;52.536;5.702;2022-12-26T01:33:32;0.60;;;0.40;;
72497;SDS011;60522;52.536;5.702;2022-12-26T01:35:59;0.75;;;0.50;;
72497;SDS011;60522;52.536;5.702;2022-12-26T01:38:24;0.80;;;0.50;;
72497;SDS011;60522;52.536;5.702;2022-12-26T01:40:50;0.98;;;0.60;;
72497;SDS011;60522;52.536;5.702;2022-12-26T01:46:16;0.65;;;0.50;;
72497;SDS011;60522;52.536;5.702;2022-12-26T01:48:45;0.75;;;0.50;;
72497;SDS011;60522;52.536;5.702;2022-12-26T01:51:11;0.60;;;0.43;;
72497;SDS011;60522;52.536;5.702;2022-12-26T01:53:38;0.50;;;0.50;;
72497;SDS011;60522;52.536;5.702;2022-12-26T01:56:10;0.63;;;0.50;;
72497;SDS011;60522;52.536;5.702;2022-12-26T01:58:41;0.45;;;0.43;;
72497;SDS011;60522;52.536;5.702;2022-12-26T02:01:10;0.68;;;0.43;;
72497;SDS011;60522;52.536;5.702;2022-12-26T02:03:36;0.55;;;0.52;;
72497;SDS011;60522;52.536;5.702;2022-12-26T02:06:25;0.40;;;0.40;;
72497;SDS011;60522;52.536;5.702;2022-12-26T02:08:50;0.50;;;0.43;;
72497;SDS011;60522;52.536;5.702;2022-12-26T02:11:18;0.70;;;0.40;;
72497;SDS011;60522;52.536;5.702;2022-12-26T02:13:47;0.70;;;0.40;;
72497;SDS011;60522;52.536;5.702;2022-12-26T02:16:13;0.60;;;0.50;;
72497;SDS011;60522;52.536;5.702;2022-12-26T02:18:41;0.45;;;0.40;;
72497;SDS011;60522;52.536;5.702;2022-12-26T02:21:28;0.60;;;0.50;;
72497;SDS011;60522;52.536;5.702;2022-12-26T02:24:12;0.50;;;0.40;;
72497;SDS011;60522;52.536;5.702;2022-12-26T02:32:32;0.55;;;0.43;;
72497;SDS011;60522;52.536;5.702;2022-12-26T02:35:35;0.55;;;0.40;;
72497;SDS011;60522;52.536;5.702;2022-12-26T02:41:00;0.60;;;0.40;;
72497;SDS011;60522;52.536;5.702;2022-12-26T02:46:24;0.45;;;0.40;;
72497;SDS011;60522;52.536;5.702;2022-12-26T02:49:17;0.75;;;0.55;;
72497;SDS011;60522;52.536;5.702;2022-12-26T02:52:00;0.60;;;0.40;;
72497;SDS011;60522;52.536;5.702;2022-12-26T02:55:28;0.40;;;0.40;;
72497;SDS011;60522;52.536;5.702;2022-12-26T02:58:14;0.60;;;0.40;;
72497;SDS011;60522;52.536;5.702;2022-12-26T03:01:01;0.50;;;0.40;;
72497;SDS011;60522;52.536;5.702;2022-12-26T03:03:48;0.40;;;0.40;;
72497;SDS011;60522;52.536;5.702;2022-12-26T03:06:35;0.43;;;0.40;;
72497;SDS011;60522;52.536;5.702;2022-12-26T03:09:26;0.47;;;0.40;;
72497;SDS011;60522;52.536;5.702;2022-12-26T03:15:02;0.80;;;0.40;;
72497;SDS011;60522;52.536;5.702;2022-12-26T03:18:05;0.50;;;0.47;;
72497;SDS011;60522;52.536;5.702;2022-12-26T03:20:27;0.50;;;0.50;;
72497;SDS011;60522;52.536;5.702;2022-12-26T03:23:14;0.45;;;0.40;;
72497;SDS011;60522;52.536;5.702;2022-12-26T03:25:52;0.50;;;0.45;;
72497;SDS011;60522;52.536;5.702;2022-12-26T03:28:38;0.50;;;0.40;;
72497;SDS011;60522;52.536;5.702;2022-12-26T03:31:06;0.57;;;0.50;;
72497;SDS011;60522;52.536;5.702;2022-12-26T03:33:34;0.50;;;0.40;;
72497;SDS011;60522;52.536;5.702;2022-12-26T03:44:54;0.43;;;0.40;;
72497;SDS011;60522;52.536;5.702;2022-12-26T03:47:47;0.60;;;0.43;;
72497;SDS011;60522;52.536;5.702;2022-12-26T03:50:46;0.40;;;0.40;;
72497;SDS011;60522;52.536;5.702;2022-12-26T03:53:41;0.40;;;0.40;;
72497;SDS011;60522;52.536;5.702;2022-12-26T03:59:19;0.40;;;0.40;;
72497;SDS011;60522;52.536;5.702;2022-12-26T04:02:11;0.30;;;0.30;;
72497;SDS011;60522;52.536;5.702;2022-12-26T04:04:58;0.40;;;0.40;;
72497;SDS011;60522;52.536;5.702;2022-12-26T04:07:49;0.50;;;0.50;;
72497;SDS011;60522;52.536;5.702;2022-12-26T04:10:39;0.40;;;0.40;;
72497;SDS011;60522;52.536;5.702;2022-12-26T04:20:32;0.40;;;0.40;;
72497;SDS011;60522;52.536;5.702;2022-12-26T04:23:12;0.40;;;0.40;;
72497;SDS011;60522;52.536;5.702;2022-12-26T04:26:09;0.50;;;0.40;;
72497;SDS011;60522;52.536;5.702;2022-12-26T04:28:58;0.50;;;0.47;;
72497;SDS011;60522;52.536;5.702;2022-12-26T04:31:44;0.50;;;0.40;;
72497;SDS011;60522;52.536;5.702;2022-12-26T04:34:39;0.47;;;0.40;;
72497;SDS011;60522;52.536;5.702;2022-12-26T04:37:28;0.47;;;0.47;;
72497;SDS011;60522;52.536;5.702;2022-12-26T04:40:18;0.60;;;0.50;;
72497;SDS011;60522;52.536;5.702;2022-12-26T04:43:06;0.60;;;0.57;;
72497;SDS011;60522;52.536;5.702;2022-12-26T04:45:51;0.40;;;0.40;;
72497;SDS011;60522;52.536;5.702;2022-12-26T04:48:18;0.50;;;0.40;;
72497;SDS011;60522;52.536;5.702;2022-12-26T04:51:02;0.50;;;0.40;;
72497;SDS011;60522;52.536;5.702;2022-12-26T04:53:27;0.40;;;0.40;;
72497;SDS011;60522;52.536;5.702;2022-12-26T04:55:52;1.27;;;0.40;;
72497;SDS011;60522;52.536;5.702;2022-12-26T04:58:18;0.47;;;0.40;;
72497;SDS011;60522;52.536;5.702;2022-12-26T05:00:43;0.38;;;0.32;;
72497;SDS011;60522;52.536;5.702;2022-12-26T05:03:12;0.60;;;0.40;;
72497;SDS011;60522;52.536;5.702;2022-12-26T05:05:56;0.47;;;0.40;;
72497;SDS011;60522;52.536;5.702;2022-12-26T05:08:42;0.40;;;0.40;;
72497;SDS011;60522;52.536;5.702;2022-12-26T05:11:28;0.40;;;0.40;;
72497;SDS011;60522;52.536;5.702;2022-12-26T05:13:55;0.40;;;0.40;;
72497;SDS011;60522;52.536;5.702;2022-12-26T05:16:22;0.50;;;0.45;;
72497;SDS011;60522;52.536;5.702;2022-12-26T05:19:11;0.40;;;0.40;;
72497;SDS011;60522;52.536;5.702;2022-12-26T05:21:56;0.40;;;0.40;;
72497;SDS011;60522;52.536;5.702;2022-12-26T05:24:41;0.50;;;0.40;;
72497;SDS011;60522;52.536;5.702;2022-12-26T05:27:33;0.57;;;0.45;;
72497;SDS011;60522;52.536;5.702;2022-12-26T05:30:22;0.55;;;0.40;;
72497;SDS011;60522;52.536;5.702;2022-12-26T05:32:47;0.40;;;0.40;;
72497;SDS011;60522;52.536;5.702;2022-12-26T05:35:32;0.45;;;0.40;;
72497;SDS011;60522;52.536;5.702;2022-12-26T05:37:59;0.50;;;0.50;;
72497;SDS011;60522;52.536;5.702;2022-12-26T05:40:24;0.40;;;0.40;;
72497;SDS011;60522;52.536;5.702;2022-12-26T05:42:49;0.40;;;0.40;;
72497;SDS011;60522;52.536;5.702;2022-12-26T05:45:15;0.45;;;0.40;;
72497;SDS011;60522;52.536;5.702;2022-12-26T05:47:40;0.53;;;0.40;;
72497;SDS011;60522;52.536;5.702;2022-12-26T05:50:06;0.40;;;0.40;;
72497;SDS011;60522;52.536;5.702;2022-12-26T05:52:31;0.40;;;0.40;;
72497;SDS011;60522;52.536;5.702;2022-12-26T05:54:57;0.30;;;0.30;;
72497;SDS011;60522;52.536;5.702;2022-12-26T05:57:22;0.50;;;0.40;;
72497;SDS011;60522;52.536;5.702;2022-12-26T05:59:48;0.40;;;0.40;;
72497;SDS011;60522;52.536;5.702;2022-12-26T06:02:13;0.50;;;0.40;;
72497;SDS011;60522;52.536;5.702;2022-12-26T06:04:38;0.40;;;0.40;;
72497;SDS011;60522;52.536;5.702;2022-12-26T06:07:04;0.40;;;0.40;;
72497;SDS011;60522;52.536;5.702;2022-12-26T06:09:29;0.50;;;0.37;;
72497;SDS011;60522;52.536;5.702;2022-12-26T06:11:55;0.40;;;0.40;;
72497;SDS011;60522;52.536;5.702;2022-12-26T06:14:20;0.40;;;0.40;;
72497;SDS011;60522;52.536;5.702;2022-12-26T06:16:46;0.40;;;0.40;;
72497;SDS011;60522;52.536;5.702;2022-12-26T06:19:11;0.50;;;0.50;;
72497;SDS011;60522;52.536;5.702;2022-12-26T06:21:36;0.50;;;0.50;;
72497;SDS011;60522;52.536;5.702;2022-12-26T06:24:02;0.40;;;0.40;;
72497;SDS011;60522;52.536;5.702;2022-12-26T06:26:27;0.60;;;0.50;;
72497;SDS011;60522;52.536;5.702;2022-12-26T06:28:52;0.40;;;0.40;;
72497;SDS011;60522;52.536;5.702;2022-12-26T06:31:19;0.50;;;0.50;;
72497;SDS011;60522;52.536;5.702;2022-12-26T06:33:47;0.40;;;0.40;;
72497;SDS011;60522;52.536;5.702;2022-12-26T06:36:19;0.50;;;0.50;;
72497;SDS011;60522;52.536;5.702;2022-12-26T06:38:47;0.50;;;0.50;;
72497;SDS011;60522;52.536;5.702;2022-12-26T06:41:14;0.75;;;0.50;;
72497;SDS011;60522;52.536;5.702;2022-12-26T06:43:41;0.50;;;0.50;;
72497;SDS011;60522;52.536;5.702;2022-12-26T06:46:08;0.43;;;0.43;;
72497;SDS011;60522;52.536;5.702;2022-12-26T06:48:36;0.50;;;0.40;;
72497;SDS011;60522;52.536;5.702;2022-12-26T06:51:07;0.40;;;0.40;;
72497;SDS011;60522;52.536;5.702;2022-12-26T06:53:35;0.50;;;0.40;;
72497;SDS011;60522;52.536;5.702;2022-12-26T06:56:07;0.40;;;0.40;;
72497;SDS011;60522;52.536;5.702;2022-12-26T06:58:34;0.50;;;0.40;;
72497;SDS011;60522;52.536;5.702;2022-12-26T07:01:04;0.40;;;0.40;;
72497;SDS011;60522;52.536;5.702;2022-12-26T07:03:31;0.60;;;0.50;;
72497;SDS011;60522;52.536;5.702;2022-12-26T07:06:00;0.50;;;0.47;;
72497;SDS011;60522;52.536;5.702;2022-12-26T07:08:27;0.40;;;0.40;;
72497;SDS011;60522;52.536;5.702;2022-12-26T07:10:53;0.30;;;0.30;;
72497;SDS011;60522;52.536;5.702;2022-12-26T07:13:18;0.40;;;0.40;;
72497;SDS011;60522;52.536;5.702;2022-12-26T07:15:43;0.40;;;0.40;;
72497;SDS011;60522;52.536;5.702;2022-12-26T07:18:09;0.50;;;0.47;;
72497;SDS011;60522;52.536;5.702;2022-12-26T07:20:34;0.40;;;0.40;;
72497;SDS011;60522;52.536;5.702;2022-12-26T07:23:02;0.50;;;0.50;;
72497;SDS011;60522;52.536;5.702;2022-12-26T07:25:27;0.40;;;0.40;;
72497;SDS011;60522;52.536;5.702;2022-12-26T07:27:52;0.40;;;0.40;;
72497;SDS011;60522;52.536;5.702;2022-12-26T07:30:18;0.30;;;0.30;;
72497;SDS011;60522;52.536;5.702;2022-12-26T07:32:43;0.40;;;0.40;;
72497;SDS011;60522;52.536;5.702;2022-12-26T07:35:09;0.50;;;0.40;;
72497;SDS011;60522;52.536;5.702;2022-12-26T07:37:34;0.40;;;0.40;;
72497;SDS011;60522;52.536;5.702;2022-12-26T07:39:59;0.50;;;0.40;;
72497;SDS011;60522;52.536;5.702;2022-12-26T07:42:25;0.50;;;0.40;;
72497;SDS011;60522;52.536;5.702;2022-12-26T07:44:50;0.40;;;0.40;;
72497;SDS011;60522;52.536;5.702;2022-12-26T07:47:15;0.50;;;0.40;;
72497;SDS011;60522;52.536;5.702;2022-12-26T07:49:41;0.40;;;0.40;;
72497;SDS011;60522;52.536;5.702;2022-12-26T07:52:06;0.40;;;0.40;;
72497;SDS011;60522;52.536;5.702;2022-12-26T07:54:31;0.40;;;0.40;;
72497;SDS011;60522;52.536;5.702;2022-12-26T07:56:57;0.40;;;0.40;;
72497;SDS011;60522;52.536;5.702;2022-12-26T07:59:22;0.50;;;0.50;;
72497;SDS011;60522;52.536;5.702;2022-12-26T08:01:48;0.40;;;0.40;;
72497;SDS011;60522;52.536;5.702;2022-12-26T08:04:13;0.40;;;0.40;;
72497;SDS011;60522;52.536;5.702;2022-12-26T08:06:38;0.43;;;0.40;;
72497;SDS011;60522;52.536;5.702;2022-12-26T08:09:04;0.50;;;0.40;;
72497;SDS011;60522;52.536;5.702;2022-12-26T08:11:34;0.50;;;0.50;;
72497;SDS011;60522;52.536;5.702;2022-12-26T08:13:59;0.40;;;0.40;;
72497;SDS011;60522;52.536;5.702;2022-12-26T08:16:25;0.40;;;0.40;;
72497;SDS011;60522;52.536;5.702;2022-12-26T08:18:51;0.40;;;0.40;;
72497;SDS011;60522;52.536;5.702;2022-12-26T08:21:16;0.40;;;0.40;;
72497;SDS011;60522;52.536;5.702;2022-12-26T08:23:41;0.40;;;0.40;;
72497;SDS011;60522;52.536;5.702;2022-12-26T08:26:08;0.40;;;0.40;;
72497;SDS011;60522;52.536;5.702;2022-12-26T08:28:35;0.40;;;0.40;;
72497;SDS011;60522;52.536;5.702;2022-12-26T08:31:08;0.30;;;0.30;;
72497;SDS011;60522;52.536;5.702;2022-12-26T08:33:34;0.40;;;0.40;;
72497;SDS011;60522;52.536;5.702;2022-12-26T08:36:01;0.40;;;0.40;;
72497;SDS011;60522;52.536;5.702;2022-12-26T08:38:27;0.45;;;0.40;;
72497;SDS011;60522;52.536;5.702;2022-12-26T08:40:53;0.40;;;0.40;;
72497;SDS011;60522;52.536;5.702;2022-12-26T08:43:20;0.30;;;0.30;;
72497;SDS011;60522;52.536;5.702;2022-12-26T08:45:48;0.50;;;0.47;;
72497;SDS011;60522;52.536;5.702;2022-12-26T08:48:31;0.40;;;0.40;;
72497;SDS011;60522;52.536;5.702;2022-12-26T08:51:01;0.40;;;0.40;;
72497;SDS011;60522;52.536;5.702;2022-12-26T08:53:29;0.50;;;0.40;;
72497;SDS011;60522;52.536;5.702;2022-12-26T08:55:57;0.35;;;0.35;;
72497;SDS011;60522;52.536;5.702;2022-12-26T08:58:23;0.45;;;0.45;;
72497;SDS011;60522;52.536;5.702;2022-12-26T09:00:49;0.40;;;0.40;;
72497;SDS011;60522;52.536;5.702;2022-12-26T09:03:15;0.37;;;0.33;;
72497;SDS011;60522;52.536;5.702;2022-12-26T09:05:40;0.40;;;0.40;;
72497;SDS011;60522;52.536;5.702;2022-12-26T09:08:06;0.40;;;0.40;;
72497;SDS011;60522;52.536;5.702;2022-12-26T09:10:32;0.40;;;0.40;;
72497;SDS011;60522;52.536;5.702;2022-12-26T09:12:57;0.50;;;0.40;;
72497;SDS011;60522;52.536;5.702;2022-12-26T09:15:23;0.50;;;0.50;;
72497;SDS011;60522;52.536;5.702;2022-12-26T09:17:48;0.40;;;0.40;;
72497;SDS011;60522;52.536;5.702;2022-12-26T09:20:14;0.60;;;0.40;;
72497;SDS011;60522;52.536;5.702;2022-12-26T09:22:39;0.40;;;0.40;;
72497;SDS011;60522;52.536;5.702;2022-12-26T09:25:17;0.40;;;0.40;;
72497;SDS011;60522;52.536;5.702;2022-12-26T09:27:44;0.40;;;0.40;;
72497;SDS011;60522;52.536;5.702;2022-12-26T09:30:09;0.50;;;0.50;;
72497;SDS011;60522;52.536;5.702;2022-12-26T09:32:36;0.50;;;0.50;;
72497;SDS011;60522;52.536;5.702;2022-12-26T09:35:02;0.63;;;0.40;;
72497;SDS011;60522;52.536;5.702;2022-12-26T09:37:28;0.60;;;0.40;;
72497;SDS011;60522;52.536;5.702;2022-12-26T09:39:53;0.32;;;0.32;;
72497;SDS011;60522;52.536;5.702;2022-12-26T09:47:30;0.40;;;0.40;;
72497;SDS011;60522;52.536;5.702;2022-12-26T09:55:24;0.40;;;0.40;;
72497;SDS011;60522;52.536;5.702;2022-12-26T09:57:51;0.40;;;0.40;;
72497;SDS011;60522;52.536;5.702;2022-12-26T10:00:27;0.63;;;0.40;;
72497;SDS011;60522;52.536;5.702;2022-12-26T10:02:57;0.50;;;0.50;;
72497;SDS011;60522;52.536;5.702;2022-12-26T10:05:25;0.40;;;0.40;;
72497;SDS011;60522;52.536;5.702;2022-12-26T10:08:02;0.82;;;0.40;;
72497;SDS011;60522;52.536;5.702;2022-12-26T10:10:57;0.40;;;0.40;;
72497;SDS011;60522;52.536;5.702;2022-12-26T10:13:35;0.40;;;0.32;;
72497;SDS011;60522;52.536;5.702;2022-12-26T10:16:50;0.40;;;0.38;;
72497;SDS011;60522;52.536;5.702;2022-12-26T10:19:02;0.40;;;0.40;;
72497;SDS011;60522;52.536;5.702;2022-12-26T10:21:41;0.50;;;0.40;;
72497;SDS011;60522;52.536;5.702;2022-12-26T10:24:19;0.30;;;0.30;;
72497;SDS011;60522;52.536;5.702;2022-12-26T10:26:48;0.40;;;0.40;;
72497;SDS011;60522;52.536;5.702;2022-12-26T10:29:22;0.60;;;0.43;;
72497;SDS011;60522;52.536;5.702;2022-12-26T10:31:56;0.50;;;0.50;;
72497;SDS011;60522;52.536;5.702;2022-12-26T10:44:49;0.30;;;0.30;;
72497;SDS011;60522;52.536;5.702;2022-12-26T10:47:24;0.40;;;0.40;;
72497;SDS011;60522;52.536;5.702;2022-12-26T10:50:04;0.77;;;0.40;;
72497;SDS011;60522;52.536;5.702;2022-12-26T10:52:31;0.50;;;0.40;;
72497;SDS011;60522;52.536;5.702;2022-12-26T10:54:59;0.32;;;0.32;;
72497;SDS011;60522;52.536;5.702;2022-12-26T10:57:28;0.32;;;0.30;;
72497;SDS011;60522;52.536;5.702;2022-12-26T10:59:59;0.50;;;0.50;;
72497;SDS011;60522;52.536;5.702;2022-12-26T11:05:03;0.40;;;0.30;;
72497;SDS011;60522;52.536;5.702;2022-12-26T11:07:33;0.30;;;0.30;;
72497;SDS011;60522;52.536;5.702;2022-12-26T11:10:02;0.40;;;0.40;;
72497;SDS011;60522;52.536;5.702;2022-12-26T11:17:46;0.30;;;0.30;;
72497;SDS011;60522;52.536;5.702;2022-12-26T11:22:43;0.40;;;0.40;;
72497;SDS011;60522;52.536;5.702;2022-12-26T11:27:36;0.40;;;0.40;;
72497;SDS011;60522;52.536;5.702;2022-12-26T11:30:14;0.50;;;0.40;;
72497;SDS011;60522;52.536;5.702;2022-12-26T11:32:40;0.80;;;0.55;;
72497;SDS011;60522;52.536;5.702;2022-12-26T11:35:15;0.50;;;0.50;;
72497;SDS011;60522;52.536;5.702;2022-12-26T11:37:43;0.50;;;0.40;;
72497;SDS011;60522;52.536;5.702;2022-12-26T11:40:16;0.40;;;0.40;;
72497;SDS011;60522;52.536;5.702;2022-12-26T11:42:51;0.47;;;0.40;;
72497;SDS011;60522;52.536;5.702;2022-12-26T11:45:22;0.30;;;0.30;;
72497;SDS011;60522;52.536;5.702;2022-12-26T11:47:50;0.50;;;0.50;;
72497;SDS011;60522;52.536;5.702;2022-12-26T11:50:19;0.73;;;0.40;;
72497;SDS011;60522;52.536;5.702;2022-12-26T12:03:16;0.30;;;0.30;;
72497;SDS011;60522;52.536;5.702;2022-12-26T12:17:33;0.40;;;0.40;;
72497;SDS011;60522;52.536;5.702;2022-12-26T12:20:18;0.40;;;0.35;;
72497;SDS011;60522;52.536;5.702;2022-12-26T12:57:55;0.45;;;0.40;;
72497;SDS011;60522;52.536;5.702;2022-12-26T13:00:39;0.40;;;0.40;;
72497;SDS011;60522;52.536;5.702;2022-12-26T13:03:10;0.55;;;0.50;;
72497;SDS011;60522;52.536;5.702;2022-12-26T13:05:47;0.40;;;0.40;;
72497;SDS011;60522;52.536;5.702;2022-12-26T13:11:04;0.30;;;0.30;;
72497;SDS011;60522;52.536;5.702;2022-12-26T13:13:36;0.40;;;0.40;;
72497;SDS011;60522;52.536;5.702;2022-12-26T13:16:10;0.35;;;0.35;;
72497;SDS011;60522;52.536;5.702;2022-12-26T13:18:40;0.40;;;0.40;;
72497;SDS011;60522;52.536;5.702;2022-12-26T13:21:13;0.40;;;0.40;;
72497;SDS011;60522;52.536;5.702;2022-12-26T13:23:41;0.50;;;0.50;;
72497;SDS011;60522;52.536;5.702;2022-12-26T13:26:30;0.40;;;0.40;;
72497;SDS011;60522;52.536;5.702;2022-12-26T13:29:14;0.40;;;0.40;;
72497;SDS011;60522;52.536;5.702;2022-12-26T13:31:43;0.40;;;0.40;;
72497;SDS011;60522;52.536;5.702;2022-12-26T13:34:13;0.40;;;0.40;;
72497;SDS011;60522;52.536;5.702;2022-12-26T13:36:45;0.40;;;0.40;;
72497;SDS011;60522;52.536;5.702;2022-12-26T13:41:48;0.47;;;0.40;;
72497;SDS011;60522;52.536;5.702;2022-12-26T13:44:35;0.50;;;0.40;;
72497;SDS011;60522;52.536;5.702;2022-12-26T13:47:01;0.60;;;0.40;;
72497;SDS011;60522;52.536;5.702;2022-12-26T13:49:32;1.27;;;0.50;;
72497;SDS011;60522;52.536;5.702;2022-12-26T13:54:35;1.58;;;0.52;;
72497;SDS011;60522;52.536;5.702;2022-12-26T14:16:17;0.73;;;0.50;;
72497;SDS011;60522;52.536;5.702;2022-12-26T14:19:01;0.65;;;0.50;;
72497;SDS011;60522;52.536;5.702;2022-12-26T14:27:18;0.90;;;0.47;;
72497;SDS011;60522;52.536;5.702;2022-12-26T14:38:28;1.02;;;0.40;;
72497;SDS011;60522;52.536;5.702;2022-12-26T14:41:07;0.70;;;0.50;;
72497;SDS011;60522;52.536;5.702;2022-12-26T14:43:54;1.30;;;0.40;;
72497;SDS011;60522;52.536;5.702;2022-12-26T14:48:55;0.50;;;0.40;;
72497;SDS011;60522;52.536;5.702;2022-12-26T14:51:27;0.63;;;0.43;;
72497;SDS011;60522;52.536;5.702;2022-12-26T14:56:46;0.50;;;0.40;;
72497;SDS011;60522;52.536;5.702;2022-12-26T14:59:26;1.35;;;0.40;;
72497;SDS011;60522;52.536;5.702;2022-12-26T15:16:04;0.45;;;0.40;;
72497;SDS011;60522;52.536;5.702;2022-12-26T15:18:55;0.47;;;0.40;;
72497;SDS011;60522;52.536;5.702;2022-12-26T15:33:05;0.43;;;0.40;;
72497;SDS011;60522;52.536;5.702;2022-12-26T15:35:45;0.40;;;0.33;;
72497;SDS011;60522;52.536;5.702;2022-12-26T15:38:42;0.50;;;0.40;;
72497;SDS011;60522;52.536;5.702;2022-12-26T15:50:15;0.30;;;0.30;;
72497;SDS011;60522;52.536;5.702;2022-12-26T15:58:20;0.77;;;0.47;;
72497;SDS011;60522;52.536;5.702;2022-12-26T16:00:56;0.40;;;0.40;;
72497;SDS011;60522;52.536;5.702;2022-12-26T16:05:57;0.47;;;0.32;;
72497;SDS011;60522;52.536;5.702;2022-12-26T16:08:50;0.40;;;0.40;;
72497;SDS011;60522;52.536;5.702;2022-12-26T16:14:13;0.50;;;0.50;;
72497;SDS011;60522;52.536;5.702;2022-12-26T16:19:39;0.43;;;0.40;;
72497;SDS011;60522;52.536;5.702;2022-12-26T16:22:49;0.47;;;0.40;;
72497;SDS011;60522;52.536;5.702;2022-12-26T16:25:07;0.40;;;0.30;;
72497;SDS011;60522;52.536;5.702;2022-12-26T16:27:39;0.40;;;0.40;;
72497;SDS011;60522;52.536;5.702;2022-12-26T16:30:06;0.40;;;0.40;;
72497;SDS011;60522;52.536;5.702;2022-12-26T16:32:38;0.40;;;0.40;;
72497;SDS011;60522;52.536;5.702;2022-12-26T16:35:12;0.77;;;0.40;;
72497;SDS011;60522;52.536;5.702;2022-12-26T16:37:41;0.40;;;0.40;;
72497;SDS011;60522;52.536;5.702;2022-12-26T16:42:35;0.82;;;0.40;;
72497;SDS011;60522;52.536;5.702;2022-12-26T16:45:01;0.47;;;0.30;;
72497;SDS011;60522;52.536;5.702;2022-12-26T16:47:27;0.68;;;0.45;;
72497;SDS011;60522;52.536;5.702;2022-12-26T16:49:55;0.50;;;0.40;;
72497;SDS011;60522;52.536;5.702;2022-12-26T16:52:29;0.60;;;0.38;;
72497;SDS011;60522;52.536;5.702;2022-12-26T16:55:10;0.40;;;0.40;;
72497;SDS011;60522;52.536;5.702;2022-12-26T16:57:46;0.40;;;0.40;;
72497;SDS011;60522;52.536;5.702;2022-12-26T17:00:18;0.63;;;0.40;;
72497;SDS011;60522;52.536;5.702;2022-12-26T17:02:46;0.65;;;0.45;;
72497;SDS011;60522;52.536;5.702;2022-12-26T17:05:19;0.40;;;0.40;;
72497;SDS011;60522;52.536;5.702;2022-12-26T17:07:47;0.40;;;0.30;;
72497;SDS011;60522;52.536;5.702;2022-12-26T17:10:22;0.50;;;0.40;;
72497;SDS011;60522;52.536;5.702;2022-12-26T17:12:50;0.60;;;0.40;;
72497;SDS011;60522;52.536;5.702;2022-12-26T17:15:24;0.93;;;0.60;;
72497;SDS011;60522;52.536;5.702;2022-12-26T17:17:52;0.80;;;0.57;;
72497;SDS011;60522;52.536;5.702;2022-12-26T17:22:49;0.80;;;0.60;;
72497;SDS011;60522;52.536;5.702;2022-12-26T17:27:44;1.00;;;0.50;;
72497;SDS011;60522;52.536;5.702;2022-12-26T17:30:29;1.10;;;0.70;;
72497;SDS011;60522;52.536;5.702;2022-12-26T17:33:03;1.02;;;0.70;;
72497;SDS011;60522;52.536;5.702;2022-12-26T17:35:54;1.23;;;0.70;;
72497;SDS011;60522;52.536;5.702;2022-12-26T17:38:22;1.10;;;0.70;;
72497;SDS011;60522;52.536;5.702;2022-12-26T17:40:56;1.67;;;0.80;;
72497;SDS011;60522;52.536;5.702;2022-12-26T17:43:29;1.23;;;0.70;;
72497;SDS011;60522;52.536;5.702;2022-12-26T17:45:56;1.60;;;0.70;;
72497;SDS011;60522;52.536;5.702;2022-12-26T17:48:21;1.30;;;0.80;;
72497;SDS011;60522;52.536;5.702;2022-12-26T17:50:48;0.93;;;0.60;;
72497;SDS011;60522;52.536;5.702;2022-12-26T17:55:46;1.42;;;0.70;;
72497;SDS011;60522;52.536;5.702;2022-12-26T17:58:12;1.63;;;0.70;;
72497;SDS011;60522;52.536;5.702;2022-12-26T18:00:38;1.35;;;0.90;;
72497;SDS011;60522;52.536;5.702;2022-12-26T18:03:04;1.55;;;0.50;;
72497;SDS011;60522;52.536;5.702;2022-12-26T18:05:30;1.50;;;0.80;;
72497;SDS011;60522;52.536;5.702;2022-12-26T18:07:57;1.52;;;0.70;;
72497;SDS011;60522;52.536;5.702;2022-12-26T18:10:24;0.85;;;0.60;;
72497;SDS011;60522;52.536;5.702;2022-12-26T18:12:53;1.10;;;0.60;;
72497;SDS011;60522;52.536;5.702;2022-12-26T18:15:19;2.22;;;0.68;;
72497;SDS011;60522;52.536;5.702;2022-12-26T18:17:46;1.48;;;0.65;;
72497;SDS011;60522;52.536;5.702;2022-12-26T18:20:30;1.20;;;0.70;;
72497;SDS011;60522;52.536;5.702;2022-12-26T18:22:56;0.70;;;0.57;;
72497;SDS011;60522;52.536;5.702;2022-12-26T18:25:22;1.23;;;0.60;;
72497;SDS011;60522;52.536;5.702;2022-12-26T18:27:49;1.13;;;0.60;;
72497;SDS011;60522;52.536;5.702;2022-12-26T18:30:19;0.70;;;0.50;;
72497;SDS011;60522;52.536;5.702;2022-12-26T18:32:47;1.60;;;0.60;;
72497;SDS011;60522;52.536;5.702;2022-12-26T18:35:14;1.47;;;0.70;;
72497;SDS011;60522;52.536;5.702;2022-12-26T18:37:43;1.15;;;0.60;;
72497;SDS011;60522;52.536;5.702;2022-12-26T18:40:31;1.15;;;0.60;;
72497;SDS011;60522;52.536;5.702;2022-12-26T18:42:56;0.88;;;0.60;;
72497;SDS011;60522;52.536;5.702;2022-12-26T18:45:22;0.83;;;0.50;;
72497;SDS011;60522;52.536;5.702;2022-12-26T18:47:47;0.70;;;0.50;;
72497;SDS011;60522;52.536;5.702;2022-12-26T18:50:13;0.70;;;0.50;;
72497;SDS011;60522;52.536;5.702;2022-12-26T18:52:40;0.85;;;0.60;;
72497;SDS011;60522;52.536;5.702;2022-12-26T18:55:06;1.38;;;0.70;;
72497;SDS011;60522;52.536;5.702;2022-12-26T18:57:32;1.33;;;0.60;;
72497;SDS011;60522;52.536;5.702;2022-12-26T18:59:58;0.98;;;0.52;;
72497;SDS011;60522;52.536;5.702;2022-12-26T19:02:23;1.20;;;0.50;;
72497;SDS011;60522;52.536;5.702;2022-12-26T19:04:49;0.95;;;0.68;;
72497;SDS011;60522;52.536;5.702;2022-12-26T19:07:15;1.20;;;0.53;;